This is the latest recevied weather packets stored in our database for station/object K5YNC. If no packets are shown the sender has not sent any weather packets the latest 1 day(s).
| Time | Temp. | Humidity | Pressure | Rain* | Wind** | Luminosity | Snow |
|---|---|---|---|---|---|---|---|
| 1836274582 | 26.11° C | 67% | 1017.3 hPa | 0 mm | 0.45 m/s, 159° | 0 W/m² | - |
| 1836274436 | 26.67° C | 66% | 1017.2 hPa | 0 mm | 1.79 m/s, 158° | 0 W/m² | - |
| 1836274280 | 26.11° C | 66% | 1017.4 hPa | 0 mm | 1.79 m/s, 162° | 0 W/m² | - |
| 1836274134 | 26.11° C | 66% | 1017.2 hPa | 0 mm | 2.24 m/s, 161° | 0 W/m² | - |
| 1836273980 | 25.56° C | 67% | 1017.4 hPa | 0 mm | 1.34 m/s, 204° | 0 W/m² | - |
| 1778054274 | 11.11° C | 77% | 1013.4 hPa | 0 mm | 0.45 m/s, 248° | 0 W/m² | - |
| 1778053971 | 11.11° C | 77% | 1013.4 hPa | 0 mm | 1.34 m/s, 359° | 0 W/m² | - |
| 1778053668 | 11.11° C | 78% | 1013.3 hPa | 0 mm | 0.89 m/s, 72° | 0 W/m² | - |
| 1778053365 | 11.11° C | 77% | 1013.4 hPa | 0 mm | 0.89 m/s, 352° | 0 W/m² | - |
| 1778053063 | 11.11° C | 78% | 1013.4 hPa | 0 mm | 0.45 m/s, 124° | 0 W/m² | - |
| 1778052760 | 11.11° C | 78% | 1013.4 hPa | 0 mm | 1.34 m/s, 306° | 0 W/m² | - |
| 1778052457 | 11.11° C | 78% | 1013.4 hPa | 0 mm | 1.79 m/s, 331° | 0 W/m² | - |
| 1778052154 | 11.67° C | 77% | 1013.2 hPa | 0 mm | 0.89 m/s, 287° | 0 W/m² | - |
| 1778051852 | 11.67° C | 77% | 1013.1 hPa | 0 mm | 0.89 m/s, 29° | 0 W/m² | - |
| 1778051550 | 11.11° C | 77% | 1013.4 hPa | 0 mm | 0.45 m/s, 7° | 0 W/m² | - |
| 1778051246 | 11.11° C | 77% | 1013 hPa | 0 mm | 1.34 m/s, 0° | 0 W/m² | - |
| 1778050944 | 11.67° C | 78% | 1013.2 hPa | 0 mm | 0.89 m/s, 351° | 0 W/m² | - |
| 1778050641 | 11.67° C | 78% | 1013.4 hPa | 0 mm | 0.45 m/s, 308° | 0 W/m² | - |
| 1778050338 | 11.67° C | 78% | 1012.8 hPa | 0 mm | 0.89 m/s, 345° | 0 W/m² | - |
| 1778050035 | 11.67° C | 79% | 1012.9 hPa | 0 mm | 0.45 m/s, 334° | 0 W/m² | - |
| 1778049730 | 11.67° C | 79% | 1012.7 hPa | 0 mm | 0.89 m/s, 8° | 0 W/m² | - |
| 1778049429 | 11.11° C | 79% | 1012.7 hPa | 0 mm | 0.89 m/s, 329° | 0 W/m² | - |
| 1778049125 | 11.11° C | 79% | 1012.3 hPa | 0 mm | 0.45 m/s, 39° | 0 W/m² | - |
| 1778048824 | 11.67° C | 78% | 1012.3 hPa | 0 mm | 0.89 m/s, 268° | 0 W/m² | - |
| 1778048520 | 11.67° C | 78% | 1012.5 hPa | 0 mm | 1.34 m/s, 14° | 0 W/m² | - |
* Rain latest hour (hover to see other rain measurements)
** Current wind speed in m/s (hover to see current wind gust speed)